sensor_id;sensor_type;location;lat;lon;timestamp;P1;durP1;ratioP1;P2;durP2;ratioP2
34872;SDS011;21084;51.098;14.506;2022-10-16T00:02:16;13.85;;;10.57;;
34872;SDS011;21084;51.098;14.506;2022-10-16T00:05:23;16.65;;;11.25;;
34872;SDS011;21084;51.098;14.506;2022-10-16T00:08:24;13.80;;;10.85;;
34872;SDS011;21084;51.098;14.506;2022-10-16T00:11:39;14.10;;;11.07;;
34872;SDS011;21084;51.098;14.506;2022-10-16T00:14:28;14.00;;;11.25;;
34872;SDS011;21084;51.098;14.506;2022-10-16T00:18:18;14.30;;;10.60;;
34872;SDS011;21084;51.098;14.506;2022-10-16T00:28:50;14.07;;;11.60;;
34872;SDS011;21084;51.098;14.506;2022-10-16T00:31:46;17.92;;;12.18;;
34872;SDS011;21084;51.098;14.506;2022-10-16T00:35:07;14.18;;;12.10;;
34872;SDS011;21084;51.098;14.506;2022-10-16T00:38:05;14.98;;;11.88;;
34872;SDS011;21084;51.098;14.506;2022-10-16T00:41:20;21.75;;;13.15;;
34872;SDS011;21084;51.098;14.506;2022-10-16T00:47:35;14.68;;;12.60;;
34872;SDS011;21084;51.098;14.506;2022-10-16T00:53:43;15.32;;;12.82;;
34872;SDS011;21084;51.098;14.506;2022-10-16T00:56:39;16.63;;;14.13;;
34872;SDS011;21084;51.098;14.506;2022-10-16T00:59:20;18.35;;;14.48;;
34872;SDS011;21084;51.098;14.506;2022-10-16T01:02:13;20.55;;;15.43;;
34872;SDS011;21084;51.098;14.506;2022-10-16T01:05:20;20.52;;;14.02;;
34872;SDS011;21084;51.098;14.506;2022-10-16T01:08:29;20.25;;;14.55;;
34872;SDS011;21084;51.098;14.506;2022-10-16T01:12:05;19.05;;;15.50;;
34872;SDS011;21084;51.098;14.506;2022-10-16T01:15:29;21.42;;;16.27;;
34872;SDS011;21084;51.098;14.506;2022-10-16T01:23:04;25.23;;;16.05;;
34872;SDS011;21084;51.098;14.506;2022-10-16T01:29:07;19.33;;;15.20;;
34872;SDS011;21084;51.098;14.506;2022-10-16T01:31:47;20.00;;;16.13;;
34872;SDS011;21084;51.098;14.506;2022-10-16T01:34:28;18.80;;;14.60;;
34872;SDS011;21084;51.098;14.506;2022-10-16T01:37:07;19.20;;;16.13;;
34872;SDS011;21084;51.098;14.506;2022-10-16T01:39:46;18.47;;;14.73;;
34872;SDS011;21084;51.098;14.506;2022-10-16T01:42:22;22.05;;;16.13;;
34872;SDS011;21084;51.098;14.506;2022-10-16T01:44:57;19.13;;;15.60;;
34872;SDS011;21084;51.098;14.506;2022-10-16T01:47:33;22.55;;;16.30;;
34872;SDS011;21084;51.098;14.506;2022-10-16T01:50:06;19.70;;;15.77;;
34872;SDS011;21084;51.098;14.506;2022-10-16T01:52:41;23.65;;;14.73;;
34872;SDS011;21084;51.098;14.506;2022-10-16T01:55:17;20.20;;;15.50;;
34872;SDS011;21084;51.098;14.506;2022-10-16T01:57:50;18.33;;;15.60;;
34872;SDS011;21084;51.098;14.506;2022-10-16T02:00:23;20.58;;;16.83;;
34872;SDS011;21084;51.098;14.506;2022-10-16T02:02:55;21.10;;;15.85;;
34872;SDS011;21084;51.098;14.506;2022-10-16T02:05:28;20.10;;;16.75;;
34872;SDS011;21084;51.098;14.506;2022-10-16T02:08:00;20.20;;;15.55;;
34872;SDS011;21084;51.098;14.506;2022-10-16T02:10:32;19.02;;;16.13;;
34872;SDS011;21084;51.098;14.506;2022-10-16T02:13:06;20.45;;;16.92;;
34872;SDS011;21084;51.098;14.506;2022-10-16T02:15:38;19.92;;;15.80;;
34872;SDS011;21084;51.098;14.506;2022-10-16T02:18:07;21.88;;;17.75;;
34872;SDS011;21084;51.098;14.506;2022-10-16T02:20:42;29.15;;;19.55;;
34872;SDS011;21084;51.098;14.506;2022-10-16T02:23:18;24.38;;;18.13;;
34872;SDS011;21084;51.098;14.506;2022-10-16T02:25:51;23.05;;;18.92;;
34872;SDS011;21084;51.098;14.506;2022-10-16T02:28:22;29.52;;;21.25;;
34872;SDS011;21084;51.098;14.506;2022-10-16T02:30:58;29.42;;;21.75;;
34872;SDS011;21084;51.098;14.506;2022-10-16T02:33:41;25.77;;;20.17;;
34872;SDS011;21084;51.098;14.506;2022-10-16T02:36:16;26.52;;;19.20;;
34872;SDS011;21084;51.098;14.506;2022-10-16T02:38:52;25.50;;;19.42;;
34872;SDS011;21084;51.098;14.506;2022-10-16T02:41:36;24.77;;;19.48;;
34872;SDS011;21084;51.098;14.506;2022-10-16T02:44:13;26.42;;;18.83;;
34872;SDS011;21084;51.098;14.506;2022-10-16T02:46:59;26.50;;;19.77;;
34872;SDS011;21084;51.098;14.506;2022-10-16T02:49:39;24.35;;;18.45;;
34872;SDS011;21084;51.098;14.506;2022-10-16T02:52:20;27.30;;;20.23;;
34872;SDS011;21084;51.098;14.506;2022-10-16T02:54:52;27.98;;;19.83;;
34872;SDS011;21084;51.098;14.506;2022-10-16T02:57:26;29.30;;;19.85;;
34872;SDS011;21084;51.098;14.506;2022-10-16T02:59:59;32.25;;;20.70;;
34872;SDS011;21084;51.098;14.506;2022-10-16T03:02:36;24.92;;;19.38;;
34872;SDS011;21084;51.098;14.506;2022-10-16T03:05:17;28.42;;;20.42;;
34872;SDS011;21084;51.098;14.506;2022-10-16T03:07:57;24.55;;;19.35;;
34872;SDS011;21084;51.098;14.506;2022-10-16T03:10:45;25.45;;;19.80;;
34872;SDS011;21084;51.098;14.506;2022-10-16T03:13:21;25.58;;;19.67;;
34872;SDS011;21084;51.098;14.506;2022-10-16T03:15:56;26.77;;;20.38;;
34872;SDS011;21084;51.098;14.506;2022-10-16T03:18:35;27.27;;;19.55;;
34872;SDS011;21084;51.098;14.506;2022-10-16T03:21:10;23.63;;;19.02;;
34872;SDS011;21084;51.098;14.506;2022-10-16T03:23:45;25.17;;;19.65;;
34872;SDS011;21084;51.098;14.506;2022-10-16T03:26:16;25.48;;;19.92;;
34872;SDS011;21084;51.098;14.506;2022-10-16T03:29:03;24.02;;;19.02;;
34872;SDS011;21084;51.098;14.506;2022-10-16T03:31:40;26.92;;;19.60;;
34872;SDS011;21084;51.098;14.506;2022-10-16T03:34:15;33.15;;;19.92;;
34872;SDS011;21084;51.098;14.506;2022-10-16T03:36:48;24.02;;;19.55;;
34872;SDS011;21084;51.098;14.506;2022-10-16T03:39:32;21.92;;;18.25;;
34872;SDS011;21084;51.098;14.506;2022-10-16T03:42:06;24.30;;;18.83;;
34872;SDS011;21084;51.098;14.506;2022-10-16T03:44:41;22.40;;;18.30;;
34872;SDS011;21084;51.098;14.506;2022-10-16T03:47:23;23.85;;;18.08;;
34872;SDS011;21084;51.098;14.506;2022-10-16T03:50:00;25.52;;;19.50;;
34872;SDS011;21084;51.098;14.506;2022-10-16T03:52:32;21.40;;;17.40;;
34872;SDS011;21084;51.098;14.506;2022-10-16T03:57:50;24.13;;;17.38;;
34872;SDS011;21084;51.098;14.506;2022-10-16T04:00:26;20.92;;;16.80;;
34872;SDS011;21084;51.098;14.506;2022-10-16T04:06:12;21.27;;;16.05;;
34872;SDS011;21084;51.098;14.506;2022-10-16T04:08:52;18.33;;;14.95;;
34872;SDS011;21084;51.098;14.506;2022-10-16T04:11:53;19.00;;;14.52;;
34872;SDS011;21084;51.098;14.506;2022-10-16T04:14:39;18.30;;;12.93;;
34872;SDS011;21084;51.098;14.506;2022-10-16T04:17:32;16.77;;;12.30;;
34872;SDS011;21084;51.098;14.506;2022-10-16T04:20:06;13.70;;;11.23;;
34872;SDS011;21084;51.098;14.506;2022-10-16T04:22:49;13.80;;;11.10;;
34872;SDS011;21084;51.098;14.506;2022-10-16T04:25:24;15.30;;;11.27;;
34872;SDS011;21084;51.098;14.506;2022-10-16T04:31:08;13.82;;;9.80;;
34872;SDS011;21084;51.098;14.506;2022-10-16T04:36:25;11.45;;;9.52;;
34872;SDS011;21084;51.098;14.506;2022-10-16T04:38:57;15.07;;;9.70;;
34872;SDS011;21084;51.098;14.506;2022-10-16T04:41:30;10.05;;;8.57;;
34872;SDS011;21084;51.098;14.506;2022-10-16T04:44:07;11.43;;;8.73;;
34872;SDS011;21084;51.098;14.506;2022-10-16T04:46:40;10.43;;;8.27;;
34872;SDS011;21084;51.098;14.506;2022-10-16T04:49:18;13.98;;;8.10;;
34872;SDS011;21084;51.098;14.506;2022-10-16T04:51:58;13.63;;;7.63;;
34872;SDS011;21084;51.098;14.506;2022-10-16T04:54:39;10.18;;;7.85;;
34872;SDS011;21084;51.098;14.506;2022-10-16T04:57:13;12.32;;;7.80;;
34872;SDS011;21084;51.098;14.506;2022-10-16T04:59:45;8.88;;;7.50;;
34872;SDS011;21084;51.098;14.506;2022-10-16T05:02:18;15.10;;;7.72;;
34872;SDS011;21084;51.098;14.506;2022-10-16T05:05:09;9.75;;;7.22;;
34872;SDS011;21084;51.098;14.506;2022-10-16T05:07:43;8.15;;;7.10;;
34872;SDS011;21084;51.098;14.506;2022-10-16T05:10:21;10.15;;;7.13;;
34872;SDS011;21084;51.098;14.506;2022-10-16T05:12:52;10.52;;;7.18;;
34872;SDS011;21084;51.098;14.506;2022-10-16T05:15:24;10.27;;;7.50;;
34872;SDS011;21084;51.098;14.506;2022-10-16T05:17:55;11.60;;;7.15;;
34872;SDS011;21084;51.098;14.506;2022-10-16T05:20:27;11.20;;;8.02;;
34872;SDS011;21084;51.098;14.506;2022-10-16T05:22:59;12.93;;;7.68;;
34872;SDS011;21084;51.098;14.506;2022-10-16T05:25:32;8.77;;;7.78;;
34872;SDS011;21084;51.098;14.506;2022-10-16T05:28:03;9.60;;;7.70;;
34872;SDS011;21084;51.098;14.506;2022-10-16T05:30:36;7.95;;;6.80;;
34872;SDS011;21084;51.098;14.506;2022-10-16T05:33:06;12.82;;;8.07;;
34872;SDS011;21084;51.098;14.506;2022-10-16T05:35:39;12.18;;;8.45;;
34872;SDS011;21084;51.098;14.506;2022-10-16T05:38:09;14.00;;;7.88;;
34872;SDS011;21084;51.098;14.506;2022-10-16T05:40:39;14.23;;;8.47;;
34872;SDS011;21084;51.098;14.506;2022-10-16T05:43:10;10.07;;;7.85;;
34872;SDS011;21084;51.098;14.506;2022-10-16T05:45:39;13.23;;;9.23;;
34872;SDS011;21084;51.098;14.506;2022-10-16T05:48:11;13.05;;;9.23;;
34872;SDS011;21084;51.098;14.506;2022-10-16T05:50:44;9.98;;;7.82;;
34872;SDS011;21084;51.098;14.506;2022-10-16T05:53:15;14.02;;;9.40;;
34872;SDS011;21084;51.098;14.506;2022-10-16T05:55:53;10.55;;;8.50;;
34872;SDS011;21084;51.098;14.506;2022-10-16T05:58:24;16.40;;;10.30;;
34872;SDS011;21084;51.098;14.506;2022-10-16T06:01:01;13.20;;;9.98;;
34872;SDS011;21084;51.098;14.506;2022-10-16T06:03:33;17.15;;;11.43;;
34872;SDS011;21084;51.098;14.506;2022-10-16T06:06:08;20.85;;;14.05;;
34872;SDS011;21084;51.098;14.506;2022-10-16T06:08:39;23.27;;;13.95;;
34872;SDS011;21084;51.098;14.506;2022-10-16T06:11:13;20.40;;;14.82;;
34872;SDS011;21084;51.098;14.506;2022-10-16T06:13:54;24.05;;;15.25;;
34872;SDS011;21084;51.098;14.506;2022-10-16T06:16:38;20.70;;;14.20;;
34872;SDS011;21084;51.098;14.506;2022-10-16T06:19:10;20.33;;;14.20;;
34872;SDS011;21084;51.098;14.506;2022-10-16T06:21:46;14.63;;;11.88;;
34872;SDS011;21084;51.098;14.506;2022-10-16T06:24:29;13.02;;;10.68;;
34872;SDS011;21084;51.098;14.506;2022-10-16T06:27:08;15.63;;;10.63;;
34872;SDS011;21084;51.098;14.506;2022-10-16T06:29:40;12.88;;;10.13;;
34872;SDS011;21084;51.098;14.506;2022-10-16T06:32:10;14.13;;;10.68;;
34872;SDS011;21084;51.098;14.506;2022-10-16T06:34:40;13.15;;;11.55;;
34872;SDS011;21084;51.098;14.506;2022-10-16T06:37:11;20.60;;;10.80;;
34872;SDS011;21084;51.098;14.506;2022-10-16T06:39:46;19.95;;;14.85;;
34872;SDS011;21084;51.098;14.506;2022-10-16T06:42:17;24.27;;;18.13;;
34872;SDS011;21084;51.098;14.506;2022-10-16T06:44:48;26.73;;;18.35;;
34872;SDS011;21084;51.098;14.506;2022-10-16T06:47:17;22.47;;;17.07;;
34872;SDS011;21084;51.098;14.506;2022-10-16T06:49:48;15.68;;;13.57;;
34872;SDS011;21084;51.098;14.506;2022-10-16T06:52:23;16.77;;;12.10;;
34872;SDS011;21084;51.098;14.506;2022-10-16T06:55:06;14.25;;;10.80;;
34872;SDS011;21084;51.098;14.506;2022-10-16T06:57:48;11.00;;;9.90;;
34872;SDS011;21084;51.098;14.506;2022-10-16T07:00:30;11.75;;;9.90;;
34872;SDS011;21084;51.098;14.506;2022-10-16T07:03:09;11.35;;;8.82;;
34872;SDS011;21084;51.098;14.506;2022-10-16T07:06:05;10.63;;;9.30;;
34872;SDS011;21084;51.098;14.506;2022-10-16T07:09:12;10.57;;;8.77;;
34872;SDS011;21084;51.098;14.506;2022-10-16T07:15:47;10.30;;;8.63;;
34872;SDS011;21084;51.098;14.506;2022-10-16T07:18:34;12.43;;;8.50;;
34872;SDS011;21084;51.098;14.506;2022-10-16T07:21:13;10.57;;;7.65;;
34872;SDS011;21084;51.098;14.506;2022-10-16T07:27:45;8.25;;;7.25;;
34872;SDS011;21084;51.098;14.506;2022-10-16T07:30:34;7.57;;;6.78;;
34872;SDS011;21084;51.098;14.506;2022-10-16T07:33:37;7.13;;;6.43;;
34872;SDS011;21084;51.098;14.506;2022-10-16T07:36:19;9.57;;;6.63;;
34872;SDS011;21084;51.098;14.506;2022-10-16T08:26:55;7.28;;;4.85;;
34872;SDS011;21084;51.098;14.506;2022-10-16T08:29:25;5.95;;;4.90;;
34872;SDS011;21084;51.098;14.506;2022-10-16T08:31:54;6.40;;;4.80;;
34872;SDS011;21084;51.098;14.506;2022-10-16T08:35:31;4.68;;;4.28;;
34872;SDS011;21084;51.098;14.506;2022-10-16T08:38:26;4.75;;;4.10;;
34872;SDS011;21084;51.098;14.506;2022-10-16T08:40:54;4.72;;;4.00;;
34872;SDS011;21084;51.098;14.506;2022-10-16T09:08:30;5.65;;;3.13;;
34872;SDS011;21084;51.098;14.506;2022-10-16T09:11:11;6.97;;;3.03;;
34872;SDS011;21084;51.098;14.506;2022-10-16T09:13:47;4.88;;;3.30;;
34872;SDS011;21084;51.098;14.506;2022-10-16T09:16:22;3.40;;;3.10;;
34872;SDS011;21084;51.098;14.506;2022-10-16T09:18:58;6.05;;;3.00;;
34872;SDS011;21084;51.098;14.506;2022-10-16T09:21:31;5.38;;;3.15;;
34872;SDS011;21084;51.098;14.506;2022-10-16T09:24:07;3.22;;;2.92;;
34872;SDS011;21084;51.098;14.506;2022-10-16T09:26:39;6.28;;;2.95;;
34872;SDS011;21084;51.098;14.506;2022-10-16T09:29:10;5.90;;;2.92;;
34872;SDS011;21084;51.098;14.506;2022-10-16T09:31:41;5.75;;;3.00;;
34872;SDS011;21084;51.098;14.506;2022-10-16T09:34:13;4.13;;;3.00;;
34872;SDS011;21084;51.098;14.506;2022-10-16T09:36:51;4.07;;;2.97;;
34872;SDS011;21084;51.098;14.506;2022-10-16T09:39:20;4.88;;;2.67;;
34872;SDS011;21084;51.098;14.506;2022-10-16T09:41:48;5.75;;;2.38;;
34872;SDS011;21084;51.098;14.506;2022-10-16T09:44:18;4.90;;;2.58;;
34872;SDS011;21084;51.098;14.506;2022-10-16T09:49:58;3.90;;;2.80;;
34872;SDS011;21084;51.098;14.506;2022-10-16T09:52:30;6.60;;;2.67;;
34872;SDS011;21084;51.098;14.506;2022-10-16T10:01:12;3.65;;;3.10;;
34872;SDS011;21084;51.098;14.506;2022-10-16T10:03:42;5.72;;;3.03;;
34872;SDS011;21084;51.098;14.506;2022-10-16T10:06:18;6.07;;;3.17;;
34872;SDS011;21084;51.098;14.506;2022-10-16T10:22:56;5.13;;;3.28;;
34872;SDS011;21084;51.098;14.506;2022-10-16T10:25:43;5.20;;;3.45;;
34872;SDS011;21084;51.098;14.506;2022-10-16T10:34:42;3.25;;;2.67;;
34872;SDS011;21084;51.098;14.506;2022-10-16T10:47:47;6.03;;;3.42;;
34872;SDS011;21084;51.098;14.506;2022-10-16T10:50:36;4.60;;;2.97;;
34872;SDS011;21084;51.098;14.506;2022-10-16T10:53:11;5.90;;;3.05;;
34872;SDS011;21084;51.098;14.506;2022-10-16T10:55:52;3.95;;;2.70;;
34872;SDS011;21084;51.098;14.506;2022-10-16T11:01:40;3.20;;;2.70;;
34872;SDS011;21084;51.098;14.506;2022-10-16T11:04:27;4.55;;;2.70;;
34872;SDS011;21084;51.098;14.506;2022-10-16T11:07:14;5.43;;;2.80;;
34872;SDS011;21084;51.098;14.506;2022-10-16T11:09:45;4.72;;;2.58;;
34872;SDS011;21084;51.098;14.506;2022-10-16T11:12:18;2.65;;;2.45;;
34872;SDS011;21084;51.098;14.506;2022-10-16T11:14:50;4.57;;;3.05;;
34872;SDS011;21084;51.098;14.506;2022-10-16T11:17:26;4.07;;;2.38;;
34872;SDS011;21084;51.098;14.506;2022-10-16T11:20:00;11.07;;;5.45;;
34872;SDS011;21084;51.098;14.506;2022-10-16T11:22:33;4.43;;;3.42;;
34872;SDS011;21084;51.098;14.506;2022-10-16T11:25:04;3.38;;;3.08;;
34872;SDS011;21084;51.098;14.506;2022-10-16T11:27:41;6.55;;;2.90;;
34872;SDS011;21084;51.098;14.506;2022-10-16T11:30:14;4.47;;;2.83;;
34872;SDS011;21084;51.098;14.506;2022-10-16T11:32:50;3.28;;;2.55;;
34872;SDS011;21084;51.098;14.506;2022-10-16T11:35:33;9.32;;;2.70;;
34872;SDS011;21084;51.098;14.506;2022-10-16T11:38:09;7.90;;;2.63;;
34872;SDS011;21084;51.098;14.506;2022-10-16T11:40:41;5.55;;;2.63;;
34872;SDS011;21084;51.098;14.506;2022-10-16T11:43:17;5.28;;;2.78;;
34872;SDS011;21084;51.098;14.506;2022-10-16T11:45:51;5.43;;;2.70;;
34872;SDS011;21084;51.098;14.506;2022-10-16T11:48:24;4.70;;;2.53;;
34872;SDS011;21084;51.098;14.506;2022-10-16T11:50:58;3.13;;;2.58;;
34872;SDS011;21084;51.098;14.506;2022-10-16T11:53:38;3.20;;;2.25;;
34872;SDS011;21084;51.098;14.506;2022-10-16T11:56:12;4.43;;;3.00;;
34872;SDS011;21084;51.098;14.506;2022-10-16T11:58:46;5.03;;;2.55;;
34872;SDS011;21084;51.098;14.506;2022-10-16T12:01:22;3.13;;;2.83;;
34872;SDS011;21084;51.098;14.506;2022-10-16T12:03:59;6.07;;;2.50;;
34872;SDS011;21084;51.098;14.506;2022-10-16T12:06:34;5.75;;;2.70;;
34872;SDS011;21084;51.098;14.506;2022-10-16T12:09:09;4.32;;;2.40;;
34872;SDS011;21084;51.098;14.506;2022-10-16T12:11:46;4.35;;;2.45;;
34872;SDS011;21084;51.098;14.506;2022-10-16T12:14:18;6.22;;;3.03;;
34872;SDS011;21084;51.098;14.506;2022-10-16T12:16:53;3.83;;;2.45;;
34872;SDS011;21084;51.098;14.506;2022-10-16T12:19:24;3.67;;;2.72;;
34872;SDS011;21084;51.098;14.506;2022-10-16T12:21:54;3.92;;;2.30;;
34872;SDS011;21084;51.098;14.506;2022-10-16T12:24:29;3.63;;;2.65;;
34872;SDS011;21084;51.098;14.506;2022-10-16T12:27:01;3.38;;;2.33;;
34872;SDS011;21084;51.098;14.506;2022-10-16T12:32:02;7.68;;;2.80;;
34872;SDS011;21084;51.098;14.506;2022-10-16T12:34:35;4.35;;;2.78;;
34872;SDS011;21084;51.098;14.506;2022-10-16T12:37:08;4.75;;;2.63;;
34872;SDS011;21084;51.098;14.506;2022-10-16T12:39:39;3.35;;;2.92;;
34872;SDS011;21084;51.098;14.506;2022-10-16T12:42:22;4.00;;;2.50;;
34872;SDS011;21084;51.098;14.506;2022-10-16T12:44:57;3.67;;;2.60;;
34872;SDS011;21084;51.098;14.506;2022-10-16T12:47:35;4.57;;;2.90;;
34872;SDS011;21084;51.098;14.506;2022-10-16T12:52:52;2.90;;;2.58;;
34872;SDS011;21084;51.098;14.506;2022-10-16T12:55:21;8.32;;;3.53;;
34872;SDS011;21084;51.098;14.506;2022-10-16T12:57:58;5.50;;;2.97;;
34872;SDS011;21084;51.098;14.506;2022-10-16T13:00:35;9.48;;;2.80;;
34872;SDS011;21084;51.098;14.506;2022-10-16T13:06:22;6.68;;;3.17;;
34872;SDS011;21084;51.098;14.506;2022-10-16T13:09:04;5.20;;;2.85;;
34872;SDS011;21084;51.098;14.506;2022-10-16T13:11:51;4.35;;;2.20;;
34872;SDS011;21084;51.098;14.506;2022-10-16T13:17:42;6.80;;;2.80;;
34872;SDS011;21084;51.098;14.506;2022-10-16T13:20:19;3.60;;;2.78;;
34872;SDS011;21084;51.098;14.506;2022-10-16T13:22:54;5.82;;;2.58;;
34872;SDS011;21084;51.098;14.506;2022-10-16T13:25:34;7.07;;;2.30;;
34872;SDS011;21084;51.098;14.506;2022-10-16T13:28:10;6.38;;;2.60;;
34872;SDS011;21084;51.098;14.506;2022-10-16T13:30:40;2.88;;;2.50;;
34872;SDS011;21084;51.098;14.506;2022-10-16T13:33:13;2.75;;;2.40;;
34872;SDS011;21084;51.098;14.506;2022-10-16T13:35:48;4.35;;;2.33;;
34872;SDS011;21084;51.098;14.506;2022-10-16T13:38:19;5.53;;;2.63;;
34872;SDS011;21084;51.098;14.506;2022-10-16T13:40:50;3.85;;;2.45;;
34872;SDS011;21084;51.098;14.506;2022-10-16T13:43:20;6.90;;;2.30;;
34872;SDS011;21084;51.098;14.506;2022-10-16T13:45:59;3.42;;;2.50;;
34872;SDS011;21084;51.098;14.506;2022-10-16T13:48:29;2.58;;;2.13;;
34872;SDS011;21084;51.098;14.506;2022-10-16T13:51:01;3.20;;;2.20;;
34872;SDS011;21084;51.098;14.506;2022-10-16T13:53:32;4.35;;;2.00;;
34872;SDS011;21084;51.098;14.506;2022-10-16T13:56:03;2.80;;;2.47;;
34872;SDS011;21084;51.098;14.506;2022-10-16T13:58:32;3.33;;;2.28;;
34872;SDS011;21084;51.098;14.506;2022-10-16T14:01:01;5.00;;;2.65;;
34872;SDS011;21084;51.098;14.506;2022-10-16T14:03:31;4.43;;;2.30;;
34872;SDS011;21084;51.098;14.506;2022-10-16T14:06:02;5.47;;;2.30;;
34872;SDS011;21084;51.098;14.506;2022-10-16T14:08:36;6.13;;;2.17;;
34872;SDS011;21084;51.098;14.506;2022-10-16T14:11:04;6.60;;;2.10;;
34872;SDS011;21084;51.098;14.506;2022-10-16T14:13:32;6.05;;;2.20;;
34872;SDS011;21084;51.098;14.506;2022-10-16T14:16:05;3.17;;;2.50;;
34872;SDS011;21084;51.098;14.506;2022-10-16T14:18:36;3.47;;;2.33;;
34872;SDS011;21084;51.098;14.506;2022-10-16T14:21:07;5.70;;;2.08;;
34872;SDS011;21084;51.098;14.506;2022-10-16T14:23:41;3.03;;;2.22;;
34872;SDS011;21084;51.098;14.506;2022-10-16T14:26:13;6.57;;;2.20;;
34872;SDS011;21084;51.098;14.506;2022-10-16T14:28:44;6.25;;;2.80;;
34872;SDS011;21084;51.098;14.506;2022-10-16T14:31:23;2.65;;;2.13;;
34872;SDS011;21084;51.098;14.506;2022-10-16T14:33:57;4.75;;;2.55;;
34872;SDS011;21084;51.098;14.506;2022-10-16T14:36:26;7.45;;;2.33;;
34872;SDS011;21084;51.098;14.506;2022-10-16T14:39:00;6.57;;;2.15;;
34872;SDS011;21084;51.098;14.506;2022-10-16T14:41:31;3.83;;;2.40;;
34872;SDS011;21084;51.098;14.506;2022-10-16T14:44:03;4.28;;;2.30;;
34872;SDS011;21084;51.098;14.506;2022-10-16T14:46:33;4.97;;;2.33;;
34872;SDS011;21084;51.098;14.506;2022-10-16T14:49:04;4.80;;;1.90;;
34872;SDS011;21084;51.098;14.506;2022-10-16T14:51:42;3.90;;;2.45;;
34872;SDS011;21084;51.098;14.506;2022-10-16T14:54:13;4.55;;;2.10;;
34872;SDS011;21084;51.098;14.506;2022-10-16T14:56:45;14.48;;;3.47;;
34872;SDS011;21084;51.098;14.506;2022-10-16T14:59:16;2.90;;;2.33;;
34872;SDS011;21084;51.098;14.506;2022-10-16T15:01:47;7.15;;;2.35;;
34872;SDS011;21084;51.098;14.506;2022-10-16T15:04:15;4.40;;;2.00;;
34872;SDS011;21084;51.098;14.506;2022-10-16T15:06:43;5.25;;;2.63;;
34872;SDS011;21084;51.098;14.506;2022-10-16T15:09:13;4.53;;;2.50;;
34872;SDS011;21084;51.098;14.506;2022-10-16T15:11:41;5.25;;;2.67;;
34872;SDS011;21084;51.098;14.506;2022-10-16T15:14:11;4.47;;;2.80;;
34872;SDS011;21084;51.098;14.506;2022-10-16T15:16:41;6.28;;;2.92;;
34872;SDS011;21084;51.098;14.506;2022-10-16T15:19:09;3.57;;;2.90;;
34872;SDS011;21084;51.098;14.506;2022-10-16T15:21:37;5.88;;;2.75;;
34872;SDS011;21084;51.098;14.506;2022-10-16T15:24:08;5.78;;;2.92;;
34872;SDS011;21084;51.098;14.506;2022-10-16T15:26:45;6.05;;;3.30;;
34872;SDS011;21084;51.098;14.506;2022-10-16T15:29:15;5.43;;;2.92;;
34872;SDS011;21084;51.098;14.506;2022-10-16T15:31:43;8.13;;;3.35;;
34872;SDS011;21084;51.098;14.506;2022-10-16T15:34:13;5.32;;;3.30;;
34872;SDS011;21084;51.098;14.506;2022-10-16T15:36:42;3.50;;;2.60;;
34872;SDS011;21084;51.098;14.506;2022-10-16T15:39:11;4.90;;;3.00;;
34872;SDS011;21084;51.098;14.506;2022-10-16T15:41:40;5.55;;;3.53;;
34872;SDS011;21084;51.098;14.506;2022-10-16T15:44:10;5.53;;;3.20;;
34872;SDS011;21084;51.098;14.506;2022-10-16T15:46:38;3.85;;;3.05;;
34872;SDS011;21084;51.098;14.506;2022-10-16T15:49:06;15.38;;;9.45;;
34872;SDS011;21084;51.098;14.506;2022-10-16T15:51:41;10.23;;;5.10;;
34872;SDS011;21084;51.098;14.506;2022-10-16T15:54:09;10.07;;;4.13;;
34872;SDS011;21084;51.098;14.506;2022-10-16T15:56:37;9.55;;;5.15;;
34872;SDS011;21084;51.098;14.506;2022-10-16T15:59:05;15.40;;;6.10;;
34872;SDS011;21084;51.098;14.506;2022-10-16T16:01:35;12.93;;;9.07;;
34872;SDS011;21084;51.098;14.506;2022-10-16T16:04:03;23.67;;;10.07;;
34872;SDS011;21084;51.098;14.506;2022-10-16T16:06:45;11.48;;;7.15;;
34872;SDS011;21084;51.098;14.506;2022-10-16T16:09:13;15.82;;;12.25;;
34872;SDS011;21084;51.098;14.506;2022-10-16T16:11:42;19.33;;;11.27;;
34872;SDS011;21084;51.098;14.506;2022-10-16T16:14:10;14.40;;;10.93;;
34872;SDS011;21084;51.098;14.506;2022-10-16T16:19:09;14.18;;;9.10;;
34872;SDS011;21084;51.098;14.506;2022-10-16T16:21:37;13.63;;;9.48;;
34872;SDS011;21084;51.098;14.506;2022-10-16T16:24:06;14.30;;;10.30;;
34872;SDS011;21084;51.098;14.506;2022-10-16T16:26:35;34.33;;;23.98;;
34872;SDS011;21084;51.098;14.506;2022-10-16T16:29:06;28.23;;;20.42;;
34872;SDS011;21084;51.098;14.506;2022-10-16T16:31:34;19.85;;;13.63;;
34872;SDS011;21084;51.098;14.506;2022-10-16T16:34:04;18.48;;;12.60;;
34872;SDS011;21084;51.098;14.506;2022-10-16T16:36:32;23.92;;;14.68;;
34872;SDS011;21084;51.098;14.506;2022-10-16T16:39:00;26.90;;;16.10;;
34872;SDS011;21084;51.098;14.506;2022-10-16T16:41:29;25.40;;;16.77;;
34872;SDS011;21084;51.098;14.506;2022-10-16T16:44:00;32.90;;;16.58;;
34872;SDS011;21084;51.098;14.506;2022-10-16T16:46:30;28.10;;;15.13;;
34872;SDS011;21084;51.098;14.506;2022-10-16T16:48:59;25.85;;;15.00;;
34872;SDS011;21084;51.098;14.506;2022-10-16T16:51:29;24.23;;;13.75;;
34872;SDS011;21084;51.098;14.506;2022-10-16T16:54:02;23.77;;;13.20;;
34872;SDS011;21084;51.098;14.506;2022-10-16T16:56:30;17.38;;;12.70;;
34872;SDS011;21084;51.098;14.506;2022-10-16T16:58:59;16.75;;;10.88;;
34872;SDS011;21084;51.098;14.506;2022-10-16T17:01:27;13.55;;;9.77;;
34872;SDS011;21084;51.098;14.506;2022-10-16T17:03:57;14.32;;;8.80;;
34872;SDS011;21084;51.098;14.506;2022-10-16T17:06:29;17.83;;;12.60;;
34872;SDS011;21084;51.098;14.506;2022-10-16T17:11:26;19.10;;;10.25;;
34872;SDS011;21084;51.098;14.506;2022-10-16T17:13:55;13.30;;;9.40;;
34872;SDS011;21084;51.098;14.506;2022-10-16T17:16:26;14.05;;;8.15;;
34872;SDS011;21084;51.098;14.506;2022-10-16T17:18:58;16.65;;;9.50;;
34872;SDS011;21084;51.098;14.506;2022-10-16T17:21:27;11.73;;;8.68;;
34872;SDS011;21084;51.098;14.506;2022-10-16T17:23:58;11.70;;;8.57;;
34872;SDS011;21084;51.098;14.506;2022-10-16T17:26:27;24.30;;;9.07;;
34872;SDS011;21084;51.098;14.506;2022-10-16T17:28:56;13.68;;;9.00;;
34872;SDS011;21084;51.098;14.506;2022-10-16T17:31:27;12.20;;;9.20;;
34872;SDS011;21084;51.098;14.506;2022-10-16T17:33:57;16.55;;;9.27;;
34872;SDS011;21084;51.098;14.506;2022-10-16T17:43:45;21.52;;;12.80;;
34872;SDS011;21084;51.098;14.506;2022-10-16T17:46:16;19.17;;;12.48;;
34872;SDS011;21084;51.098;14.506;2022-10-16T17:48:47;20.52;;;12.63;;
34872;SDS011;21084;51.098;14.506;2022-10-16T17:51:22;17.05;;;9.65;;
34872;SDS011;21084;51.098;14.506;2022-10-16T17:53:53;16.17;;;9.95;;
34872;SDS011;21084;51.098;14.506;2022-10-16T17:56:27;13.05;;;9.55;;
34872;SDS011;21084;51.098;14.506;2022-10-16T17:58:59;29.83;;;12.70;;
34872;SDS011;21084;51.098;14.506;2022-10-16T18:01:29;22.13;;;13.95;;
34872;SDS011;21084;51.098;14.506;2022-10-16T18:04:00;24.10;;;14.13;;
34872;SDS011;21084;51.098;14.506;2022-10-16T18:06:32;23.48;;;13.65;;
34872;SDS011;21084;51.098;14.506;2022-10-16T18:09:04;21.52;;;14.90;;
34872;SDS011;21084;51.098;14.506;2022-10-16T18:11:34;27.60;;;14.52;;
34872;SDS011;21084;51.098;14.506;2022-10-16T18:14:04;30.67;;;14.95;;
34872;SDS011;21084;51.098;14.506;2022-10-16T18:16:35;23.50;;;13.25;;